Red Wing, Minnesota
Current Conditions -  °F | °C
As of 5:11 PM on Tuesday 25 Nov 2014 (Local Time) from KRGK Reporting Station
Overcast Overcast  
Wind Chill: 25°   Ceiling: 6500
Heat Index: 25°   Visibility: 10mi
Dew Point: 16°   Wind: 3mph
Humidity: 69%   Direction: 150°SSE
Pressure: 30.04"   Gusts: NA
Location:  44.57°N, 92.53°W
Report Text: KRGK 252311Z AUTO 15003KT 10SM OVC065 M04/M09 A3004 RMK AO2
Loading
Personal Weather Stations






























Interactive Weather Map New forecast layout! Learn more

10-Day Weather Forecast

Advertisements
Track Severe Weather on mobile